createdAt,value
2023-05-10T00:01:14.366Z,1.10
2023-05-10T00:03:41.958Z,1.15
2023-05-10T00:06:09.528Z,0.90
2023-05-10T00:08:37.407Z,1.25
2023-05-10T00:11:04.975Z,1.27
2023-05-10T00:13:32.669Z,1.55
2023-05-10T00:16:01.650Z,1.42
2023-05-10T00:18:29.148Z,1.30
2023-05-10T00:20:56.550Z,1.48
2023-05-10T00:23:24.049Z,0.90
2023-05-10T00:25:51.751Z,1.23
2023-05-10T00:28:19.255Z,1.00
2023-05-10T00:30:46.812Z,0.90
2023-05-10T00:33:15.694Z,1.05
2023-05-10T00:35:43.171Z,0.68
2023-05-10T00:38:10.593Z,0.95
2023-05-10T00:40:38.505Z,0.98
2023-05-10T00:43:11.434Z,0.90
2023-05-10T00:45:41.021Z,0.75
2023-05-10T00:48:09.505Z,0.65
2023-05-10T00:50:38.416Z,0.60
2023-05-10T00:53:05.992Z,0.98
2023-05-10T00:55:33.844Z,0.88
2023-05-10T00:58:02.470Z,0.50
2023-05-10T01:00:30.621Z,0.95
2023-05-10T01:02:58.342Z,0.75
2023-05-10T01:05:25.987Z,0.47
2023-05-10T01:07:54.999Z,0.70
2023-05-10T01:10:41.163Z,0.60
2023-05-10T01:13:09.276Z,0.93
2023-05-10T01:15:55.583Z,0.90
2023-05-10T01:18:23.455Z,0.77
2023-05-10T01:21:03.315Z,0.80
2023-05-10T01:24:10.307Z,1.00
2023-05-10T01:27:03.045Z,0.93
2023-05-10T01:30:04.993Z,1.00
2023-05-10T01:32:47.651Z,0.98
2023-05-10T01:37:51.450Z,1.00
2023-05-10T01:40:26.937Z,1.08
2023-05-10T01:43:00.883Z,1.00
2023-05-10T01:45:31.922Z,1.08
2023-05-10T01:48:07.666Z,1.13
2023-05-10T01:50:38.660Z,0.95
2023-05-10T01:53:10.594Z,0.90
2023-05-10T01:55:44.262Z,0.80
2023-05-10T01:58:16.318Z,0.60
2023-05-10T02:00:46.597Z,0.77
2023-05-10T02:03:17.264Z,0.95
2023-05-10T02:05:47.064Z,0.63
2023-05-10T02:08:16.427Z,1.58
2023-05-10T02:10:45.969Z,0.60
2023-05-10T02:13:15.048Z,1.50
2023-05-10T02:15:43.744Z,0.63
2023-05-10T02:18:16.320Z,0.38
2023-05-10T02:20:44.694Z,0.80
2023-05-10T02:23:12.783Z,0.75
2023-05-10T02:25:41.349Z,0.50
2023-05-10T02:28:11.424Z,0.80
2023-05-10T02:30:39.817Z,0.65
2023-05-10T02:35:38.491Z,0.50
2023-05-10T02:38:08.257Z,0.90
2023-05-10T02:40:38.673Z,0.75
2023-05-10T02:43:10.228Z,0.68
2023-05-10T02:45:39.931Z,0.55
2023-05-10T02:48:07.791Z,0.77
2023-05-10T02:50:38.172Z,0.80
2023-05-10T02:53:20.276Z,0.70
2023-05-10T02:55:53.086Z,0.70
2023-05-10T02:58:20.679Z,0.50
2023-05-10T03:00:48.344Z,0.47
2023-05-10T03:03:17.337Z,0.63
2023-05-10T03:05:46.266Z,0.90
2023-05-10T03:08:13.911Z,0.80
2023-05-10T03:10:49.995Z,0.98
2023-05-10T03:13:30.468Z,0.82
2023-05-10T03:16:03.561Z,0.90
2023-05-10T03:18:44.179Z,0.55
2023-05-10T03:21:16.545Z,0.60
2023-05-10T03:23:48.758Z,1.00
2023-05-10T03:26:24.485Z,0.73
2023-05-10T03:28:53.910Z,0.65
2023-05-10T03:31:22.002Z,1.10
2023-05-10T03:33:49.807Z,0.60
2023-05-10T03:36:23.142Z,0.65
2023-05-10T03:38:50.979Z,1.30
2023-05-10T03:41:18.753Z,0.95
2023-05-10T03:43:46.469Z,0.50
2023-05-10T03:46:14.141Z,0.88
2023-05-10T03:48:41.651Z,0.90
2023-05-10T03:51:09.328Z,0.85
2023-05-10T03:53:38.127Z,0.80
2023-05-10T03:56:05.960Z,0.93
2023-05-10T03:58:33.506Z,1.02
2023-05-10T04:01:00.921Z,0.93
2023-05-10T04:03:28.500Z,0.90
2023-05-10T04:06:00.654Z,1.00
2023-05-10T04:08:29.054Z,1.15
2023-05-10T04:11:06.168Z,1.30
2023-05-10T04:13:33.810Z,1.20
2023-05-10T04:16:01.351Z,1.05
2023-05-10T04:18:28.785Z,1.05
2023-05-10T04:20:56.330Z,1.00
2023-05-10T04:23:24.244Z,0.93
2023-05-10T04:25:51.880Z,0.90
2023-05-10T04:28:20.782Z,1.20
2023-05-10T04:30:48.239Z,1.05
2023-05-10T04:33:16.064Z,0.98
2023-05-10T04:35:43.686Z,1.00
2023-05-10T04:38:11.172Z,0.90
2023-05-10T04:40:38.950Z,1.23
2023-05-10T04:43:06.429Z,2.75
2023-05-10T04:45:35.302Z,1.20
2023-05-10T04:48:02.930Z,1.50
2023-05-10T04:50:30.585Z,1.10
2023-05-10T04:52:58.101Z,1.13
2023-05-10T04:55:25.972Z,1.00
2023-05-10T04:57:53.689Z,1.00
2023-05-10T05:00:21.529Z,1.20
2023-05-10T05:02:50.816Z,1.20
2023-05-10T05:05:18.395Z,1.05
2023-05-10T05:07:45.914Z,1.30
2023-05-10T05:10:13.663Z,2.22
2023-05-10T05:12:41.360Z,1.20
2023-05-10T05:15:10.657Z,1.20
2023-05-10T05:17:38.252Z,1.10
2023-05-10T05:20:09.097Z,1.08
2023-05-10T05:22:37.094Z,1.38
2023-05-10T05:25:05.697Z,1.10
2023-05-10T05:27:33.635Z,1.45
2023-05-10T05:30:01.163Z,1.20
2023-05-10T05:32:28.793Z,0.98
2023-05-10T05:34:56.393Z,1.20
2023-05-10T05:37:25.438Z,1.08
2023-05-10T05:39:53.056Z,1.40
2023-05-10T05:42:20.549Z,1.30
2023-05-10T05:44:48.190Z,1.48
2023-05-10T05:47:15.683Z,1.40
2023-05-10T05:49:43.206Z,1.45
2023-05-10T05:52:10.624Z,1.55
2023-05-10T05:54:39.776Z,1.80
2023-05-10T05:57:07.454Z,2.40
2023-05-10T05:59:35.003Z,2.40
2023-05-10T06:02:02.550Z,2.63
2023-05-10T06:04:30.068Z,2.10
2023-05-10T06:06:57.603Z,1.80
2023-05-10T06:09:25.538Z,1.40
2023-05-10T06:11:54.399Z,1.50
2023-05-10T06:14:22.049Z,1.42
2023-05-10T06:16:49.507Z,1.60
2023-05-10T06:19:17.019Z,1.65
2023-05-10T06:21:44.515Z,1.85
2023-05-10T06:24:11.941Z,1.40
2023-05-10T06:26:39.474Z,1.50
2023-05-10T06:29:08.340Z,1.40
2023-05-10T06:31:35.889Z,1.48
2023-05-10T06:34:03.388Z,1.65
2023-05-10T06:36:30.813Z,1.20
2023-05-10T06:38:58.215Z,1.50
2023-05-10T06:41:25.665Z,1.70
2023-05-10T06:43:53.106Z,1.45
2023-05-10T06:46:22.014Z,1.90
2023-05-10T06:48:49.594Z,1.30
2023-05-10T06:51:17.102Z,1.50
2023-05-10T06:53:44.512Z,1.33
2023-05-10T06:56:11.910Z,1.30
2023-05-10T06:58:39.393Z,1.08
2023-05-10T07:01:07.065Z,1.17
2023-05-10T07:03:35.920Z,1.30
2023-05-10T07:06:11.350Z,1.42
2023-05-10T07:08:43.428Z,1.10
2023-05-10T07:11:13.607Z,1.30
2023-05-10T07:13:44.902Z,1.42
2023-05-10T07:16:12.551Z,1.30
2023-05-10T07:18:41.623Z,1.02
2023-05-10T07:21:09.631Z,1.50
2023-05-10T07:23:37.291Z,1.30
2023-05-10T07:26:05.102Z,1.30
2023-05-10T07:28:32.562Z,1.50
2023-05-10T07:31:00.155Z,1.75
2023-05-10T07:33:27.654Z,1.42
2023-05-10T07:35:56.472Z,1.45
2023-05-10T07:38:24.451Z,1.45
2023-05-10T07:40:52.051Z,1.33
2023-05-10T07:43:19.571Z,1.20
2023-05-10T07:45:47.098Z,1.25
2023-05-10T07:48:14.572Z,1.20
2023-05-10T07:50:42.056Z,1.42
2023-05-10T07:53:10.944Z,1.17
2023-05-10T07:55:38.403Z,1.23
2023-05-10T07:58:05.911Z,1.20
2023-05-10T08:00:33.669Z,1.67
2023-05-10T08:03:01.266Z,1.20
2023-05-10T08:05:28.818Z,1.17
2023-05-10T08:07:56.256Z,1.50
2023-05-10T08:10:25.399Z,1.10
2023-05-10T08:12:52.851Z,1.23
2023-05-10T08:15:20.535Z,1.20
2023-05-10T08:17:47.981Z,1.40
2023-05-10T08:20:17.745Z,1.20
2023-05-10T08:22:46.126Z,1.30
2023-05-10T08:25:14.445Z,1.10
2023-05-10T08:27:43.436Z,0.90
2023-05-10T08:30:11.345Z,1.30
2023-05-10T08:32:38.931Z,1.20
2023-05-10T08:35:06.750Z,1.38
2023-05-10T08:37:34.268Z,1.15
2023-05-10T08:40:01.931Z,1.15
2023-05-10T08:42:32.146Z,1.30
2023-05-10T08:45:03.001Z,0.98
2023-05-10T08:47:30.834Z,1.05
2023-05-10T08:50:00.152Z,1.10
2023-05-10T08:52:29.352Z,0.65
2023-05-10T08:54:57.264Z,0.90
2023-05-10T08:57:25.022Z,0.90
2023-05-10T08:59:52.626Z,0.82
2023-05-10T09:02:24.081Z,0.77
2023-05-10T09:04:51.789Z,0.82
2023-05-10T09:07:20.727Z,0.68
2023-05-10T09:09:48.347Z,0.77
2023-05-10T09:12:17.248Z,0.90
2023-05-10T09:14:46.575Z,0.80
2023-05-10T09:17:14.570Z,0.85
2023-05-10T09:19:43.483Z,1.10
2023-05-10T09:22:11.288Z,0.90
2023-05-10T09:24:43.383Z,0.77
2023-05-10T09:27:10.955Z,0.95
2023-05-10T09:29:42.687Z,1.20
2023-05-10T09:32:10.448Z,0.70
2023-05-10T09:34:40.950Z,1.02
2023-05-10T09:37:09.782Z,1.20
2023-05-10T09:39:38.454Z,1.27
2023-05-10T09:42:08.771Z,0.93
2023-05-10T09:44:37.289Z,0.80
2023-05-10T09:47:05.299Z,0.93
2023-05-10T09:49:34.111Z,0.95
2023-05-10T09:52:03.565Z,1.17
2023-05-10T09:54:33.849Z,1.20
2023-05-10T09:57:01.684Z,1.20
2023-05-10T09:59:30.312Z,0.95
2023-05-10T10:01:59.094Z,0.98
2023-05-10T10:04:27.490Z,1.60
2023-05-10T10:07:02.716Z,1.20
2023-05-10T10:09:30.507Z,1.15
2023-05-10T10:12:00.413Z,1.70
2023-05-10T10:14:28.105Z,1.40
2023-05-10T10:17:07.464Z,1.60
2023-05-10T10:19:37.230Z,1.30
2023-05-10T10:22:05.355Z,1.40
2023-05-10T10:24:32.955Z,1.25
2023-05-10T10:27:12.227Z,1.13
2023-05-10T10:29:49.270Z,1.20
2023-05-10T10:32:25.568Z,1.27
2023-05-10T10:34:54.959Z,1.20
2023-05-10T10:37:22.534Z,1.40
2023-05-10T10:39:51.393Z,1.52
2023-05-10T10:42:48.420Z,1.70
2023-05-10T10:45:16.036Z,1.50
2023-05-10T10:47:44.894Z,1.70
2023-05-10T10:50:17.207Z,1.80
2023-05-10T10:52:45.299Z,1.92
2023-05-10T10:55:14.174Z,1.33
2023-05-10T10:57:48.872Z,1.27
2023-05-10T11:00:22.315Z,1.10
2023-05-10T11:02:51.126Z,1.50
2023-05-10T11:05:46.488Z,1.25
2023-05-10T11:13:29.154Z,1.73
2023-05-10T11:15:58.190Z,1.30
2023-05-10T11:18:27.410Z,1.52
2023-05-10T11:20:58.554Z,1.20
2023-05-10T11:23:31.541Z,1.10
2023-05-10T11:26:00.383Z,1.80
2023-05-10T11:28:29.567Z,2.97
2023-05-10T11:30:57.984Z,1.50
2023-05-10T11:33:25.534Z,1.23
2023-05-10T11:35:53.018Z,2.15
2023-05-10T11:38:20.470Z,1.20
2023-05-10T11:40:52.529Z,1.40
2023-05-10T11:43:20.070Z,1.33
2023-05-10T11:45:49.396Z,1.30
2023-05-10T11:48:17.710Z,2.05
2023-05-10T11:50:45.326Z,1.70
2023-05-10T11:53:14.139Z,1.20
2023-05-10T11:55:41.669Z,3.25
2023-05-10T11:58:09.249Z,1.60
2023-05-10T12:00:36.858Z,1.20
2023-05-10T12:03:06.295Z,1.40
2023-05-10T12:05:35.029Z,1.25
2023-05-10T12:08:13.118Z,1.20
2023-05-10T12:10:40.853Z,1.40
2023-05-10T12:13:12.364Z,1.33
2023-05-10T12:15:39.872Z,1.20
2023-05-10T12:18:10.117Z,1.30
2023-05-10T12:20:37.943Z,1.08
2023-05-10T12:23:06.329Z,1.58
2023-05-10T12:28:05.140Z,1.35
2023-05-10T12:30:34.745Z,1.40
2023-05-10T12:33:04.512Z,1.20
2023-05-10T12:35:34.324Z,1.20
2023-05-10T12:38:01.775Z,1.00
2023-05-10T12:40:29.817Z,1.30
2023-05-10T12:42:57.384Z,1.58
2023-05-10T12:45:24.845Z,1.10
2023-05-10T12:47:52.349Z,1.30
2023-05-10T12:50:19.928Z,1.27
2023-05-10T12:52:48.802Z,1.00
2023-05-10T12:55:16.316Z,1.00
2023-05-10T12:57:43.904Z,1.38
2023-05-10T13:00:12.629Z,1.10
2023-05-10T13:02:40.607Z,1.27
2023-05-10T13:05:08.776Z,1.23
2023-05-10T13:07:36.258Z,0.98
2023-05-10T13:10:07.202Z,1.42
2023-05-10T13:12:34.825Z,1.35
2023-05-10T13:15:02.775Z,1.45
2023-05-10T13:17:32.227Z,1.00
2023-05-10T13:20:01.714Z,1.20
2023-05-10T13:22:39.805Z,1.27
2023-05-10T13:25:10.179Z,0.98
2023-05-10T13:27:37.783Z,1.63
2023-05-10T13:30:06.599Z,1.20
2023-05-10T13:32:34.538Z,1.00
2023-05-10T13:35:02.169Z,1.25
2023-05-10T13:37:30.440Z,0.90
2023-05-10T13:39:58.021Z,1.40
2023-05-10T13:42:26.997Z,1.35
2023-05-10T13:44:54.396Z,1.40
2023-05-10T13:47:22.751Z,1.55
2023-05-10T13:52:17.503Z,1.15
2023-05-10T13:54:44.996Z,1.30
2023-05-10T13:57:14.749Z,1.48
2023-05-10T13:59:43.591Z,1.30
2023-05-10T14:02:13.372Z,1.27
2023-05-10T14:04:41.207Z,1.30
2023-05-10T14:07:08.935Z,1.45
2023-05-10T14:09:36.500Z,1.52
2023-05-10T14:12:04.601Z,1.50
2023-05-10T14:14:32.159Z,1.15
2023-05-10T14:17:01.224Z,1.55
2023-05-10T14:19:28.870Z,1.52
2023-05-10T14:21:57.452Z,1.10
2023-05-10T14:24:24.896Z,1.27
2023-05-10T14:26:54.666Z,1.35
2023-05-10T14:29:22.977Z,1.50
2023-05-10T14:34:19.643Z,1.52
2023-05-10T14:36:47.157Z,1.17
2023-05-10T14:39:14.667Z,1.52
2023-05-10T14:41:43.984Z,1.40
2023-05-10T14:44:11.556Z,1.05
2023-05-10T14:46:40.431Z,1.27
2023-05-10T14:49:08.246Z,1.30
2023-05-10T14:51:37.909Z,0.93
2023-05-10T14:54:05.455Z,1.20
2023-05-10T14:56:33.072Z,1.30
2023-05-10T14:59:01.203Z,1.38
2023-05-10T15:01:29.544Z,0.90
2023-05-10T15:06:32.311Z,1.08
2023-05-10T15:09:01.592Z,1.33
2023-05-10T15:11:29.900Z,1.30
2023-05-10T15:13:57.292Z,1.17
2023-05-10T15:16:25.170Z,1.88
2023-05-10T15:18:52.910Z,2.08
2023-05-10T15:21:20.526Z,1.70
2023-05-10T15:23:48.062Z,1.42
2023-05-10T15:26:16.925Z,1.40
2023-05-10T15:28:44.629Z,1.30
2023-05-10T15:31:12.260Z,1.88
2023-05-10T15:33:39.813Z,1.40
2023-05-10T15:36:07.895Z,1.17
2023-05-10T15:38:35.437Z,1.42
2023-05-10T15:41:02.904Z,1.48
2023-05-10T15:43:31.892Z,1.38
2023-05-10T15:45:59.319Z,1.50
2023-05-10T15:48:26.953Z,1.02
2023-05-10T15:50:54.560Z,1.00
2023-05-10T15:53:22.108Z,1.00
2023-05-10T15:55:49.648Z,1.25
2023-05-10T15:58:17.158Z,1.60
2023-05-10T16:00:46.127Z,1.60
2023-05-10T16:03:13.746Z,1.77
2023-05-10T16:05:41.487Z,1.50
2023-05-10T16:08:09.004Z,1.33
2023-05-10T16:10:36.873Z,0.85
2023-05-10T16:13:04.497Z,1.30
2023-05-10T16:15:32.067Z,1.30
2023-05-10T16:18:01.052Z,1.15
2023-05-10T16:20:29.963Z,1.50
2023-05-10T16:22:57.542Z,1.42
2023-05-10T16:25:25.046Z,1.30
2023-05-10T16:27:52.557Z,1.60
2023-05-10T16:30:22.296Z,1.48
2023-05-10T16:32:51.063Z,1.17
2023-05-10T16:35:20.011Z,1.42
2023-05-10T16:37:47.726Z,1.52
2023-05-10T16:40:15.362Z,1.33
2023-05-10T16:42:42.816Z,1.38
2023-05-10T16:45:11.349Z,1.40
2023-05-10T16:47:41.668Z,1.83
2023-05-10T16:50:10.782Z,1.30
2023-05-10T16:52:40.191Z,2.05
2023-05-10T16:55:08.562Z,1.92
2023-05-10T16:57:36.207Z,2.15
2023-05-10T17:00:05.089Z,1.50
2023-05-10T17:02:33.029Z,1.92
2023-05-10T17:05:00.799Z,2.53
2023-05-10T17:07:29.409Z,1.40
2023-05-10T17:09:59.395Z,1.40
2023-05-10T17:12:26.958Z,1.30
2023-05-10T17:14:54.512Z,1.48
2023-05-10T17:17:23.523Z,1.10
2023-05-10T17:19:51.316Z,1.45
2023-05-10T17:22:19.104Z,1.60
2023-05-10T17:24:46.612Z,1.48
2023-05-10T17:27:15.627Z,1.70
2023-05-10T17:29:43.424Z,2.28
2023-05-10T17:32:11.004Z,3.10
2023-05-10T17:34:38.768Z,2.95
2023-05-10T17:37:09.297Z,1.60
2023-05-10T17:39:39.352Z,1.40
2023-05-10T17:42:07.559Z,1.60
2023-05-10T17:44:36.622Z,1.48
2023-05-10T17:47:04.388Z,2.00
2023-05-10T17:49:31.901Z,1.60
2023-05-10T17:51:59.513Z,1.50
2023-05-10T17:54:27.083Z,1.70
2023-05-10T17:56:54.660Z,1.52
2023-05-10T17:59:22.198Z,1.60
2023-05-10T18:01:51.089Z,1.70
2023-05-10T18:04:18.742Z,1.55
2023-05-10T18:06:46.227Z,1.73
2023-05-10T18:09:13.877Z,1.83
2023-05-10T18:11:41.452Z,1.77
2023-05-10T18:14:09.104Z,1.70
2023-05-10T18:16:36.914Z,1.40
2023-05-10T18:19:05.821Z,1.92
2023-05-10T18:21:33.540Z,1.60
2023-05-10T18:24:01.809Z,2.03
2023-05-10T18:28:58.047Z,2.00
2023-05-10T18:31:26.940Z,1.52
2023-05-10T18:33:54.622Z,1.63
2023-05-10T18:36:24.350Z,1.30
2023-05-10T18:38:51.963Z,1.70
2023-05-10T18:41:20.425Z,1.52
2023-05-10T18:43:48.160Z,1.45
2023-05-10T18:46:15.703Z,1.63
2023-05-10T18:48:43.456Z,2.45
2023-05-10T18:51:12.663Z,1.67
2023-05-10T18:53:41.746Z,1.50
2023-05-10T18:56:09.512Z,1.70
2023-05-10T18:58:37.326Z,1.58
2023-05-10T19:01:04.941Z,1.70
2023-05-10T19:03:32.525Z,1.80
2023-05-10T19:06:00.389Z,1.85
2023-05-10T19:08:28.251Z,1.58
2023-05-10T19:10:57.220Z,1.70
2023-05-10T19:13:24.814Z,1.67
2023-05-10T19:16:04.592Z,1.88
2023-05-10T19:18:34.095Z,1.80
2023-05-10T19:21:04.389Z,1.48
2023-05-10T19:23:32.961Z,1.48
2023-05-10T19:28:29.872Z,1.40
2023-05-10T19:31:01.047Z,1.60
2023-05-10T19:33:28.810Z,1.73
2023-05-10T19:35:56.524Z,1.70
2023-05-10T19:38:25.054Z,1.38
2023-05-10T19:40:58.452Z,1.70
2023-05-10T19:43:28.613Z,1.73
2023-05-10T19:45:59.249Z,1.63
2023-05-10T19:48:27.791Z,1.80
2023-05-10T19:53:28.389Z,1.63
2023-05-10T19:55:56.547Z,1.67
2023-05-10T19:58:25.097Z,1.70
2023-05-10T20:00:53.959Z,2.00
2023-05-10T20:03:21.639Z,1.52
2023-05-10T20:05:49.182Z,1.40
2023-05-10T20:08:16.974Z,1.40
2023-05-10T20:10:44.635Z,1.58
2023-05-10T20:13:12.154Z,1.50
2023-05-10T20:15:39.770Z,1.65
2023-05-10T20:18:08.718Z,1.30
2023-05-10T20:20:36.320Z,1.55
2023-05-10T20:23:03.956Z,1.45
2023-05-10T20:25:31.604Z,1.50
2023-05-10T20:27:59.063Z,1.92
2023-05-10T20:30:26.760Z,1.60
2023-05-10T20:32:54.324Z,2.38
2023-05-10T20:35:23.856Z,1.40
2023-05-10T20:37:51.412Z,1.60
2023-05-10T20:40:19.056Z,1.50
2023-05-10T20:42:47.483Z,1.60
2023-05-10T20:45:15.324Z,1.58
2023-05-10T20:47:42.900Z,1.20
2023-05-10T20:50:11.723Z,1.90
2023-05-10T20:52:40.622Z,1.60
2023-05-10T20:55:09.464Z,1.63
2023-05-10T20:57:37.040Z,1.58
2023-05-10T21:00:05.693Z,1.38
2023-05-10T21:02:33.284Z,1.33
2023-05-10T21:05:00.952Z,1.40
2023-05-10T21:07:28.498Z,1.80
2023-05-10T21:09:57.535Z,1.40
2023-05-10T21:12:25.088Z,1.50
2023-05-10T21:14:52.686Z,1.48
2023-05-10T21:17:20.420Z,1.48
2023-05-10T21:19:48.192Z,1.65
2023-05-10T21:22:16.610Z,1.77
2023-05-10T21:24:44.295Z,1.67
2023-05-10T21:27:13.363Z,1.60
2023-05-10T21:29:40.932Z,1.70
2023-05-10T21:32:08.595Z,1.90
2023-05-10T21:34:36.210Z,1.90
2023-05-10T21:37:03.729Z,2.03
2023-05-10T21:39:31.333Z,1.90
2023-05-10T21:42:00.360Z,1.88
2023-05-10T21:44:29.506Z,1.90
2023-05-10T21:46:57.189Z,2.05
2023-05-10T21:49:24.705Z,4.55
2023-05-10T21:51:52.286Z,2.10
2023-05-10T21:54:19.813Z,2.05
2023-05-10T21:56:47.443Z,2.80
2023-05-10T21:59:14.992Z,2.33
2023-05-10T22:01:44.069Z,2.50
2023-05-10T22:04:11.638Z,2.45
2023-05-10T22:06:39.143Z,2.33
2023-05-10T22:09:06.719Z,2.72
2023-05-10T22:11:34.220Z,2.60
2023-05-10T22:14:01.650Z,2.58
2023-05-10T22:16:29.322Z,2.70
2023-05-10T22:18:58.446Z,2.30
2023-05-10T22:21:26.080Z,2.35
2023-05-10T22:23:53.546Z,2.30
2023-05-10T22:26:22.135Z,2.42
2023-05-10T22:31:17.061Z,2.10
2023-05-10T22:33:44.900Z,2.20
2023-05-10T22:36:15.160Z,2.38
2023-05-10T22:38:42.659Z,2.38
2023-05-10T22:41:10.069Z,2.10
2023-05-10T22:43:37.608Z,2.10
2023-05-10T22:46:05.146Z,2.25
2023-05-10T22:48:34.536Z,2.10
2023-05-10T22:51:02.032Z,2.30
2023-05-10T22:53:30.959Z,2.10
2023-05-10T22:55:58.624Z,2.20
2023-05-10T22:58:26.434Z,2.00
2023-05-10T23:00:54.654Z,2.20
2023-05-10T23:03:22.433Z,2.45
2023-05-10T23:05:50.043Z,1.80
2023-05-10T23:08:17.780Z,2.30
2023-05-10T23:10:46.993Z,2.10
2023-05-10T23:13:14.542Z,1.90
2023-05-10T23:15:43.554Z,2.00
2023-05-10T23:18:11.108Z,1.98
2023-05-10T23:20:40.904Z,2.10
2023-05-10T23:23:08.495Z,2.10
2023-05-10T23:25:36.128Z,2.35
2023-05-10T23:28:05.306Z,2.25
2023-05-10T23:30:32.798Z,1.80
2023-05-10T23:33:00.796Z,2.30
2023-05-10T23:35:28.241Z,2.00
2023-05-10T23:37:55.710Z,2.10
2023-05-10T23:40:23.242Z,2.33
2023-05-10T23:42:51.563Z,2.25
2023-05-10T23:45:20.474Z,2.22
2023-05-10T23:47:48.032Z,2.13
2023-05-10T23:50:15.859Z,2.10
2023-05-10T23:52:43.807Z,2.20
2023-05-10T23:55:11.579Z,2.20
2023-05-10T23:57:39.006Z,2.28
